Time;durP1;ratioP1;P1;durP2;ratioP2;P2;SDS_P1;SDS_P2;PMS_P1;PMS_P2;Temp;Humidity;BMP_temperature;BMP_pressure;BME280_temperature;BME280_humidity;BME280_pressure;Samples;Min_cycle;Max_cycle;Signal;HPM_P1;HPM_P2
2022/10/22 00:02:23;;;;;;;27.30;20.35;;;19.30;94.40;;;;;;6370455;22;19997;-85
2022/10/22 00:04:50;;;;;;;26.50;19.17;;;19.20;94.50;;;;;;6369344;22;20454;-86
2022/10/22 00:07:17;;;;;;;26.08;19.73;;;19.20;94.60;;;;;;6371406;22;19999;-84
2022/10/22 00:09:43;;;;;;;24.85;18.63;;;19.20;94.70;;;;;;6370812;22;20122;-85
2022/10/22 00:12:09;;;;;;;27.00;18.00;;;19.20;94.80;;;;;;6369844;22;20396;-85
2022/10/22 00:14:35;;;;;;;24.45;16.73;;;19.20;94.80;;;;;;6370524;22;20316;-85
2022/10/22 00:17:01;;;;;;;23.92;18.77;;;19.20;94.90;;;;;;6370555;22;20018;-85
2022/10/22 00:19:27;;;;;;;27.60;18.95;;;19.20;94.80;;;;;;6368998;22;20001;-85
2022/10/22 00:21:52;;;;;;;29.27;19.33;;;19.20;94.90;;;;;;6370841;22;20308;-85
2022/10/22 00:24:18;;;;;;;24.50;18.10;;;19.20;94.90;;;;;;6370563;22;20071;-85
2022/10/22 00:26:44;;;;;;;26.80;18.65;;;19.10;94.80;;;;;;6370542;22;20004;-87
2022/10/22 00:29:10;;;;;;;24.42;18.02;;;19.10;94.90;;;;;;6371103;22;20124;-88
2022/10/22 00:31:35;;;;;;;24.02;18.02;;;19.20;95.00;;;;;;6370812;22;20074;-88
2022/10/22 00:34:01;;;;;;;26.65;17.48;;;19.20;95.00;;;;;;6370290;22;20002;-88
2022/10/22 00:36:27;;;;;;;23.67;17.55;;;19.20;95.00;;;;;;6368604;22;20009;-87
2022/10/22 00:38:53;;;;;;;25.85;18.70;;;19.20;95.10;;;;;;6370035;22;20005;-87
2022/10/22 00:41:19;;;;;;;22.10;17.77;;;19.20;95.00;;;;;;6370323;22;19998;-87
2022/10/22 00:43:55;;;;;;;24.63;16.95;;;19.20;95.00;;;;;;6369151;22;20002;-87
2022/10/22 00:46:21;;;;;;;27.60;19.23;;;19.20;95.10;;;;;;6369909;22;19998;-87
2022/10/22 00:48:46;;;;;;;26.63;18.05;;;19.20;95.10;;;;;;6370187;22;20116;-87
2022/10/22 00:51:12;;;;;;;36.63;19.48;;;19.20;95.20;;;;;;6371005;22;20003;-87
2022/10/22 00:53:52;;;;;;;25.65;18.05;;;19.10;95.30;;;;;;6370577;22;20013;-87
2022/10/22 00:56:19;;;;;;;28.03;19.87;;;19.10;95.30;;;;;;6370540;22;19998;-87
2022/10/22 00:58:51;;;;;;;26.50;18.75;;;19.00;95.40;;;;;;6369967;22;20416;-91
2022/10/22 01:01:20;;;;;;;30.70;21.25;;;19.00;95.50;;;;;;6342942;22;20332;-90
2022/10/22 01:03:47;;;;;;;25.57;19.67;;;19.00;95.70;;;;;;6370426;22;20006;-91
2022/10/22 01:06:27;;;;;;;33.45;21.13;;;18.90;95.80;;;;;;6371097;22;19998;-91
2022/10/22 01:09:05;;;;;;;;;;;18.80;95.90;;;;;;6372113;22;20046;-90
2022/10/22 01:12:13;;;;;;;24.23;18.02;;;18.90;96.00;;;;;;6371228;22;19977;-88
2022/10/22 01:14:48;;;;;;;22.25;17.05;;;18.90;95.90;;;;;;6351380;22;20012;-87
2022/10/22 01:17:44;;;;;;;29.30;19.02;;;18.90;95.90;;;;;;6370273;22;20032;-83
2022/10/22 01:20:30;;;;;;;23.90;17.23;;;18.90;95.90;;;;;;6368292;22;20043;-84
2022/10/22 01:23:39;;;;;;;25.27;17.15;;;18.90;95.90;;;;;;6369393;22;20063;-83
2022/10/22 01:26:18;;;;;;;22.42;16.95;;;19.00;95.90;;;;;;6369619;22;19998;-84
2022/10/22 01:29:11;;;;;;;27.50;17.80;;;19.00;95.90;;;;;;6369185;22;20006;-83
2022/10/22 01:31:48;;;;;;;26.02;17.45;;;19.00;95.80;;;;;;6368746;22;19999;-83
2022/10/22 01:34:17;;;;;;;26.77;18.33;;;19.10;95.90;;;;;;6367993;22;20029;-83
2022/10/22 01:36:45;;;;;;;26.40;17.83;;;19.10;95.90;;;;;;6369955;22;20002;-84
2022/10/22 01:39:12;;;;;;;27.20;19.30;;;19.10;96.00;;;;;;6369494;22;19998;-85
2022/10/22 01:41:41;;;;;;;24.88;17.05;;;19.10;95.90;;;;;;6369049;22;19999;-84
2022/10/22 01:44:26;;;;;;;29.30;18.40;;;19.10;96.00;;;;;;6368138;22;20443;-84
2022/10/22 01:47:06;;;;;;;23.65;18.15;;;19.10;96.00;;;;;;6342366;22;20006;-83
2022/10/22 01:49:37;;;;;;;27.55;18.35;;;19.10;96.00;;;;;;6369144;22;20002;-84
2022/10/22 01:52:41;;;;;;;22.95;17.60;;;19.00;96.10;;;;;;6341848;22;20048;-85
2022/10/22 01:55:40;;;;;;;23.25;16.85;;;19.00;96.30;;;;;;6370224;22;20029;-85
2022/10/22 01:58:33;;;;;;;29.87;19.30;;;19.00;96.50;;;;;;6369495;22;19998;-85
2022/10/22 02:01:16;;;;;;;24.38;18.50;;;19.00;96.60;;;;;;6369547;22;20023;-85
2022/10/22 02:04:11;;;;;;;24.88;17.63;;;19.00;96.70;;;;;;6368928;22;20424;-86
2022/10/22 02:06:39;;;;;;;27.67;18.25;;;19.00;96.70;;;;;;6355949;22;20055;-86
2022/10/22 02:09:08;;;;;;;26.20;17.95;;;19.00;96.80;;;;;;6341323;22;20466;-86
2022/10/22 02:11:34;;;;;;;29.75;19.13;;;19.00;97.10;;;;;;6343190;22;20042;-86
2022/10/22 02:14:03;;;;;;;28.42;19.50;;;19.10;97.00;;;;;;6370916;22;20002;-85
2022/10/22 02:16:46;;;;;;;26.63;19.97;;;19.00;97.10;;;;;;6371657;22;20601;-85
2022/10/22 02:19:26;;;;;;;27.40;18.38;;;19.00;97.00;;;;;;6370952;22;20021;-85
2022/10/22 02:21:53;;;;;;;31.55;20.92;;;19.00;97.10;;;;;;6369535;22;20074;-83
2022/10/22 02:24:20;;;;;;;24.33;18.83;;;19.00;97.20;;;;;;6370802;22;20009;-84
2022/10/22 02:26:59;;;;;;;29.02;17.75;;;19.00;97.20;;;;;;6371973;22;20022;-85
2022/10/22 02:29:37;;;;;;;24.50;17.02;;;19.00;97.20;;;;;;6371250;22;20032;-84
2022/10/22 02:32:06;;;;;;;26.70;18.67;;;19.00;97.10;;;;;;6370690;22;20017;-84
2022/10/22 02:34:32;;;;;;;33.90;18.92;;;19.10;97.00;;;;;;6371373;22;20005;-83
2022/10/22 02:37:01;;;;;;;24.33;18.80;;;19.00;96.90;;;;;;6370885;22;20085;-87
2022/10/22 02:39:28;;;;;;;24.13;17.65;;;19.10;97.00;;;;;;6370819;22;20002;-85
2022/10/22 02:41:54;;;;;;;23.08;17.27;;;19.10;96.90;;;;;;6371561;22;19998;-86
2022/10/22 02:44:21;;;;;;;29.05;19.85;;;19.10;96.90;;;;;;6369800;22;20521;-86
2022/10/22 02:46:47;;;;;;;22.95;17.60;;;19.00;96.80;;;;;;6343843;22;19999;-86
2022/10/22 02:49:13;;;;;;;30.52;19.98;;;19.00;97.10;;;;;;6371424;22;20007;-85
2022/10/22 02:51:39;;;;;;;31.73;20.38;;;19.00;97.10;;;;;;6342463;22;20164;-87
2022/10/22 02:54:05;;;;;;;26.55;17.45;;;18.90;97.00;;;;;;6342809;22;20003;-87
2022/10/22 02:56:30;;;;;;;24.30;17.10;;;18.90;97.20;;;;;;6371377;22;20610;-84
2022/10/22 02:58:56;;;;;;;23.90;17.25;;;18.90;97.20;;;;;;6371701;22;20037;-91
2022/10/22 03:01:22;;;;;;;28.45;18.52;;;18.90;97.10;;;;;;6343666;22;19999;-88
2022/10/22 03:03:48;;;;;;;25.80;18.63;;;19.00;97.20;;;;;;6371114;22;20026;-87
2022/10/22 03:06:14;;;;;;;25.40;17.95;;;19.00;97.10;;;;;;6370911;22;20033;-89
2022/10/22 03:08:40;;;;;;;23.23;17.20;;;18.90;97.10;;;;;;6372706;22;20010;-88
2022/10/22 03:11:06;;;;;;;23.40;16.17;;;18.90;97.20;;;;;;6344294;22;20362;-87
2022/10/22 03:13:31;;;;;;;24.98;17.67;;;19.00;97.20;;;;;;6370444;22;20009;-86
2022/10/22 03:15:57;;;;;;;25.73;17.65;;;19.00;97.10;;;;;;6371191;22;20607;-85
2022/10/22 03:18:23;;;;;;;24.75;18.13;;;19.00;97.10;;;;;;6370843;22;20010;-87
2022/10/22 03:20:48;;;;;;;25.80;17.17;;;19.00;96.80;;;;;;6370574;22;20017;-86
2022/10/22 03:23:18;;;;;;;23.35;17.20;;;19.00;97.00;;;;;;6368808;22;20002;-86
2022/10/22 03:25:47;;;;;;;25.00;17.10;;;19.00;97.20;;;;;;6370489;22;19998;-86
2022/10/22 03:28:14;;;;;;;23.98;17.90;;;19.00;97.20;;;;;;6370262;22;20026;-86
2022/10/22 03:30:40;;;;;;;20.98;16.23;;;19.00;97.20;;;;;;6370759;22;19999;-86
2022/10/22 03:33:05;;;;;;;29.77;17.65;;;19.00;97.30;;;;;;6368424;22;19998;-83
2022/10/22 03:35:35;;;;;;;29.33;18.65;;;19.00;97.30;;;;;;6370662;22;19998;-83
2022/10/22 03:38:01;;;;;;;24.92;17.40;;;19.00;97.40;;;;;;6369324;22;20009;-83
2022/10/22 03:40:27;;;;;;;34.10;21.80;;;19.00;97.40;;;;;;6370217;22;20018;-83
2022/10/22 03:42:52;;;;;;;37.47;27.75;;;19.00;97.50;;;;;;6370185;22;20016;-83
2022/10/22 03:45:18;;;;;;;35.63;26.40;;;19.00;97.70;;;;;;6370091;22;19999;-83
2022/10/22 03:47:44;;;;;;;38.35;26.77;;;19.00;97.40;;;;;;6370006;22;20006;-84
2022/10/22 03:50:09;;;;;;;43.40;29.25;;;19.10;97.40;;;;;;6369886;22;20010;-84
2022/10/22 03:52:39;;;;;;;42.60;28.30;;;19.00;97.40;;;;;;6370027;22;20002;-83
2022/10/22 03:55:05;;;;;;;35.40;25.30;;;19.00;97.40;;;;;;6370536;22;20002;-84
2022/10/22 03:57:31;;;;;;;33.38;24.80;;;19.00;97.50;;;;;;6369642;22;20006;-83
2022/10/22 03:59:57;;;;;;;31.77;21.75;;;19.00;97.60;;;;;;6370875;22;20273;-84
2022/10/22 04:02:22;;;;;;;24.55;18.35;;;19.10;97.60;;;;;;6370257;22;20051;-84
2022/10/22 04:04:48;;;;;;;25.58;17.35;;;19.10;97.60;;;;;;6381526;22;20061;-89
2022/10/22 04:07:14;;;;;;;28.17;19.90;;;19.10;97.60;;;;;;6372220;22;20048;-87
2022/10/22 04:09:39;;;;;;;22.92;17.35;;;19.10;97.40;;;;;;6371089;22;20313;-86
2022/10/22 04:12:06;;;;;;;27.60;17.92;;;19.10;97.50;;;;;;6370919;22;20105;-88
2022/10/22 04:14:32;;;;;;;22.30;17.38;;;19.10;97.60;;;;;;6371113;22;20549;-88
2022/10/22 04:16:58;;;;;;;24.63;17.23;;;19.10;97.80;;;;;;6369048;22;20026;-85
2022/10/22 04:19:24;;;;;;;27.48;18.05;;;19.10;97.80;;;;;;6370675;22;20013;-83
2022/10/22 04:21:49;;;;;;;32.05;17.40;;;19.10;97.70;;;;;;6368823;22;19994;-82
2022/10/22 04:24:15;;;;;;;26.98;16.83;;;19.10;97.70;;;;;;6370280;22;20002;-85
2022/10/22 04:26:41;;;;;;;27.20;16.75;;;19.10;97.80;;;;;;6369038;22;20406;-85
2022/10/22 04:29:07;;;;;;;26.05;17.98;;;19.10;97.80;;;;;;6370561;22;20002;-84
2022/10/22 04:31:33;;;;;;;27.38;18.05;;;19.10;97.80;;;;;;6369313;22;20312;-84
2022/10/22 04:34:00;;;;;;;27.35;16.85;;;19.00;97.90;;;;;;6369855;22;19998;-84
2022/10/22 04:36:27;;;;;;;20.15;15.65;;;19.00;98.20;;;;;;6368775;22;20009;-82
2022/10/22 04:38:55;;;;;;;27.08;18.33;;;19.00;98.40;;;;;;6370474;22;20003;-82
2022/10/22 04:41:24;;;;;;;23.85;17.02;;;19.00;98.40;;;;;;6369408;22;20018;-82
2022/10/22 04:43:50;;;;;;;23.55;16.63;;;19.00;98.40;;;;;;6369581;22;20294;-83
2022/10/22 04:46:17;;;;;;;25.20;16.63;;;19.00;98.40;;;;;;6369783;22;20312;-83
2022/10/22 04:48:44;;;;;;;26.88;16.88;;;19.00;98.40;;;;;;6369900;22;19998;-83
2022/10/22 04:51:12;;;;;;;22.60;15.13;;;19.00;98.40;;;;;;6369098;22;20005;-83
2022/10/22 04:53:41;;;;;;;20.80;14.75;;;19.00;98.50;;;;;;6370192;22;20006;-83
2022/10/22 04:56:20;;;;;;;22.40;15.45;;;19.00;98.50;;;;;;6369884;22;19999;-83
2022/10/22 04:58:50;;;;;;;24.50;17.15;;;19.00;98.60;;;;;;6370287;22;20008;-84
2022/10/22 05:01:25;;;;;;;26.30;16.08;;;19.10;98.50;;;;;;6369422;22;20923;-84
2022/10/22 05:03:53;;;;;;;23.33;15.30;;;19.10;98.50;;;;;;6370070;22;20047;-87
2022/10/22 05:06:19;;;;;;;19.55;14.88;;;19.10;98.60;;;;;;6368687;22;20005;-84
2022/10/22 05:08:46;;;;;;;24.60;14.95;;;19.00;98.60;;;;;;6341972;22;20014;-84
2022/10/22 05:11:18;;;;;;;23.58;15.30;;;19.00;98.80;;;;;;6369863;22;19998;-85
2022/10/22 05:13:43;;;;;;;21.90;14.77;;;19.00;98.50;;;;;;6370513;22;19998;-87
2022/10/22 05:16:09;;;;;;;23.17;14.63;;;19.10;98.50;;;;;;6369149;22;20005;-85
2022/10/22 05:18:36;;;;;;;22.50;15.13;;;19.10;98.60;;;;;;6370068;22;20002;-85
2022/10/22 05:21:03;;;;;;;20.88;14.55;;;19.00;98.60;;;;;;6368437;22;19994;-85
2022/10/22 05:23:29;;;;;;;25.83;16.42;;;19.00;98.40;;;;;;6370303;22;19994;-86
2022/10/22 05:25:54;;;;;;;21.23;14.40;;;19.00;98.40;;;;;;6369587;22;20005;-84
2022/10/22 05:28:20;;;;;;;18.92;14.68;;;19.00;98.70;;;;;;6369734;22;20399;-84
2022/10/22 05:30:56;;;;;;;19.08;14.10;;;19.00;98.50;;;;;;6369746;22;20396;-88
2022/10/22 05:33:22;;;;;;;21.35;13.77;;;19.00;98.50;;;;;;6370380;22;20439;-87
2022/10/22 05:35:51;;;;;;;17.17;12.80;;;19.10;98.60;;;;;;6369053;22;20068;-87
2022/10/22 05:38:18;;;;;;;21.83;14.98;;;19.10;98.60;;;;;;6368208;22;20067;-87
2022/10/22 05:40:44;;;;;;;18.90;14.02;;;19.10;98.50;;;;;;6369944;22;19994;-88
2022/10/22 05:43:10;;;;;;;18.83;13.50;;;19.10;98.60;;;;;;6369573;22;20039;-87
2022/10/22 05:45:37;;;;;;;20.45;14.00;;;19.10;98.50;;;;;;6369971;22;20073;-87
2022/10/22 05:48:03;;;;;;;19.80;13.98;;;19.10;98.50;;;;;;6368675;22;20002;-87
2022/10/22 05:50:29;;;;;;;17.35;13.77;;;19.10;98.50;;;;;;6370065;22;20002;-88
2022/10/22 05:52:55;;;;;;;18.63;13.90;;;19.10;98.50;;;;;;6341947;22;20085;-86
2022/10/22 05:55:20;;;;;;;24.63;14.40;;;19.10;98.50;;;;;;6369985;22;20009;-86
2022/10/22 05:57:48;;;;;;;21.60;12.75;;;19.00;98.60;;;;;;6369858;22;20002;-87
2022/10/22 06:00:14;;;;;;;20.77;14.65;;;19.10;98.80;;;;;;6369485;22;20024;-88
2022/10/22 06:02:39;;;;;;;24.33;14.20;;;19.10;98.70;;;;;;6369982;22;20416;-89
2022/10/22 06:05:05;;;;;;;20.33;13.10;;;19.00;98.60;;;;;;6370213;22;20002;-86
2022/10/22 06:07:32;;;;;;;22.10;14.35;;;19.10;98.50;;;;;;6368454;22;19995;-86
2022/10/22 06:09:58;;;;;;;16.85;12.40;;;19.10;98.50;;;;;;6341935;22;20432;-85
2022/10/22 06:12:24;;;;;;;16.58;12.98;;;19.10;98.70;;;;;;6368521;22;20120;-86
2022/10/22 06:14:50;;;;;;;26.75;13.98;;;19.10;98.40;;;;;;6369410;22;20165;-85
2022/10/22 06:17:18;;;;;;;18.05;12.30;;;19.10;98.50;;;;;;6368831;22;20428;-85
2022/10/22 06:19:44;;;;;;;20.05;11.93;;;19.10;98.50;;;;;;6369720;22;20101;-85
2022/10/22 06:22:10;;;;;;;17.63;12.88;;;19.10;98.40;;;;;;6368475;22;20005;-83
2022/10/22 06:24:35;;;;;;;16.30;11.32;;;19.20;98.50;;;;;;6369368;22;20002;-84
2022/10/22 06:27:01;;;;;;;18.52;10.57;;;19.20;98.50;;;;;;6368689;22;19995;-84
2022/10/22 06:29:27;;;;;;;16.25;10.05;;;19.20;98.40;;;;;;6368374;22;20304;-84
2022/10/22 06:31:52;;;;;;;15.10;10.45;;;19.30;98.30;;;;;;6367415;22;20003;-85
2022/10/22 06:34:18;;;;;;;13.95;9.55;;;19.30;98.40;;;;;;6369706;22;20006;-86
2022/10/22 06:36:45;;;;;;;22.00;12.15;;;19.30;98.20;;;;;;6368396;22;20002;-86
2022/10/22 06:39:15;;;;;;;19.00;12.52;;;19.30;97.90;;;;;;6367749;22;20077;-87
2022/10/22 06:41:41;;;;;;;;;;;19.30;97.80;;;;;;6369115;22;20428;-85
2022/10/22 06:44:06;;;;;;;23.02;11.93;;;19.20;98.10;;;;;;6368916;22;19927;-86
2022/10/22 06:46:32;;;;;;;16.52;11.48;;;19.10;98.40;;;;;;6368722;22;19998;-82
2022/10/22 06:49:01;;;;;;;18.92;12.45;;;19.10;98.60;;;;;;6369239;22;20003;-83
2022/10/22 06:51:27;;;;;;;20.10;12.20;;;19.00;98.90;;;;;;6368810;22;20002;-86
2022/10/22 06:53:54;;;;;;;15.73;11.07;;;18.90;99.40;;;;;;6370135;22;20009;-86
2022/10/22 06:56:23;;;;;;;16.17;10.98;;;18.90;99.60;;;;;;6368618;22;20073;-84
2022/10/22 06:58:50;;;;;;;19.95;11.52;;;18.90;99.80;;;;;;6362184;22;20520;-84
2022/10/22 07:01:17;;;;;;;19.23;12.25;;;18.90;99.90;;;;;;6370055;22;20029;-82
2022/10/22 07:03:43;;;;;;;21.35;11.35;;;18.90;99.90;;;;;;6370961;22;20357;-82
2022/10/22 07:06:12;;;;;;;17.92;10.60;;;18.90;99.90;;;;;;6370596;22;20021;-86
2022/10/22 07:08:38;;;;;;;17.92;10.55;;;18.90;99.90;;;;;;6371012;22;20021;-82
2022/10/22 07:11:16;;;;;;;20.45;11.07;;;19.00;99.90;;;;;;6335403;22;20014;-82
2022/10/22 07:13:43;;;;;;;17.08;9.85;;;19.00;99.90;;;;;;6366733;22;20010;-77
2022/10/22 07:16:09;;;;;;;20.45;10.20;;;19.00;99.90;;;;;;6366307;22;20282;-83
2022/10/22 07:18:37;;;;;;;15.18;10.18;;;19.10;99.90;;;;;;6338810;22;20083;-82
2022/10/22 07:21:04;;;;;;;19.15;11.40;;;19.10;99.80;;;;;;6367958;22;20004;-82
2022/10/22 07:23:30;;;;;;;18.00;10.88;;;19.10;99.90;;;;;;6370462;22;20133;-78
2022/10/22 07:25:56;;;;;;;13.88;9.18;;;19.10;99.90;;;;;;6371339;22;20022;-77
2022/10/22 07:28:22;;;;;;;13.85;8.63;;;19.20;99.90;;;;;;6341926;22;20003;-77
2022/10/22 07:30:48;;;;;;;13.60;9.05;;;19.20;99.90;;;;;;6370542;22;20010;-78
2022/10/22 07:33:14;;;;;;;17.33;9.30;;;19.30;99.80;;;;;;6371409;22;20006;-77
2022/10/22 07:35:40;;;;;;;14.57;10.20;;;19.30;99.60;;;;;;6370644;22;19998;-77
2022/10/22 07:38:08;;;;;;;13.75;9.32;;;19.40;99.40;;;;;;6342107;22;20006;-78
2022/10/22 07:40:35;;;;;;;18.42;10.70;;;19.40;99.30;;;;;;6370109;22;19998;-77
2022/10/22 07:43:01;;;;;;;14.95;9.98;;;19.40;99.20;;;;;;6370585;22;20009;-77
2022/10/22 07:45:27;;;;;;;13.98;7.90;;;19.40;99.40;;;;;;6370270;22;20030;-77
2022/10/22 07:47:53;;;;;;;14.80;9.27;;;19.50;99.50;;;;;;6370648;22;20424;-78
2022/10/22 07:50:19;;;;;;;19.42;10.75;;;19.50;99.30;;;;;;6371040;22;20073;-78
2022/10/22 07:52:45;;;;;;;21.98;10.82;;;19.50;99.10;;;;;;6370731;22;20002;-77
2022/10/22 07:55:12;;;;;;;15.93;9.30;;;19.50;99.10;;;;;;6342491;22;20006;-77
2022/10/22 07:57:38;;;;;;;18.42;9.48;;;19.50;99.20;;;;;;6369932;22;20007;-78
2022/10/22 08:00:05;;;;;;;15.63;9.05;;;19.60;99.20;;;;;;6370407;22;20002;-77
2022/10/22 08:02:31;;;;;;;12.90;8.30;;;19.60;99.30;;;;;;6370619;22;19991;-78
2022/10/22 08:04:58;;;;;;;16.85;10.50;;;19.70;99.00;;;;;;6370272;22;20073;-78
2022/10/22 08:07:24;;;;;;;20.83;10.70;;;19.80;98.80;;;;;;6369608;22;20002;-77
2022/10/22 08:09:49;;;;;;;14.20;8.57;;;19.80;98.50;;;;;;6368915;22;20010;-77
2022/10/22 08:12:15;;;;;;;16.35;8.00;;;19.80;98.40;;;;;;6369808;22;20400;-81
2022/10/22 08:14:41;;;;;;;14.15;8.48;;;19.90;98.30;;;;;;6369542;22;20320;-81
2022/10/22 08:17:06;;;;;;;20.48;8.82;;;20.00;98.20;;;;;;6369156;22;19999;-81
2022/10/22 08:19:34;;;;;;;12.63;8.60;;;20.10;98.00;;;;;;6369068;22;20078;-82
2022/10/22 08:22:00;;;;;;;15.13;8.77;;;20.10;97.60;;;;;;6369394;22;19994;-81
2022/10/22 08:24:25;;;;;;;12.95;8.90;;;20.20;97.50;;;;;;6370924;22;20051;-81
2022/10/22 08:26:54;;;;;;;14.55;8.70;;;20.20;97.10;;;;;;6368863;22;19994;-81
2022/10/22 08:29:21;;;;;;;12.77;9.07;;;20.30;97.00;;;;;;6368791;22;19998;-82
2022/10/22 08:31:47;;;;;;;18.77;8.93;;;20.30;96.80;;;;;;6341166;22;20316;-81
2022/10/22 08:34:13;;;;;;;15.07;9.32;;;20.30;96.70;;;;;;6368865;22;20030;-81
2022/10/22 08:36:39;;;;;;;13.30;7.72;;;20.30;96.90;;;;;;6341167;22;20084;-81
2022/10/22 08:39:04;;;;;;;17.98;10.18;;;20.40;96.80;;;;;;6368617;22;20002;-81
2022/10/22 08:41:39;;;;;;;15.48;9.18;;;20.40;96.20;;;;;;6369951;22;20003;-81
2022/10/22 08:44:32;;;;;;;14.13;7.50;;;20.40;96.50;;;;;;6370750;22;20331;-81
2022/10/22 08:47:35;;;;;;;12.93;8.27;;;20.50;96.50;;;;;;6370055;22;20288;-81
2022/10/22 08:50:01;;;;;;;11.15;6.90;;;20.60;96.10;;;;;;6366360;22;20094;-86
2022/10/22 08:52:27;;;;;;;9.73;7.03;;;20.60;96.00;;;;;;6367086;22;20006;-82
2022/10/22 08:54:57;;;;;;;12.32;7.03;;;20.70;95.80;;;;;;6367722;22;20006;-82
2022/10/22 08:57:44;;;;;;;9.75;6.20;;;20.70;95.50;;;;;;6369905;22;20024;-82
2022/10/22 09:00:12;;;;;;;14.90;8.57;;;20.80;95.50;;;;;;6369816;22;19995;-82
2022/10/22 09:03:14;;;;;;;10.85;6.70;;;20.90;95.30;;;;;;6369687;22;19998;-82
2022/10/22 09:06:06;;;;;;;10.93;6.38;;;21.00;95.30;;;;;;6368866;22;20053;-84
2022/10/22 09:08:33;;;;;;;15.35;7.78;;;21.10;95.30;;;;;;6367659;22;20417;-84
2022/10/22 09:11:20;;;;;;;12.43;6.75;;;21.20;95.20;;;;;;6368090;22;20370;-84
2022/10/22 09:13:47;;;;;;;14.50;6.53;;;21.20;94.90;;;;;;6369878;22;20351;-84
2022/10/22 09:16:24;;;;;;;11.68;7.20;;;21.30;94.70;;;;;;6369031;22;20008;-84
2022/10/22 09:19:05;;;;;;;11.95;6.32;;;21.40;94.20;;;;;;6341426;22;20011;-83
2022/10/22 09:21:40;;;;;;;9.55;7.03;;;21.40;93.70;;;;;;6342407;22;20002;-83
2022/10/22 09:24:32;;;;;;;12.95;7.32;;;21.30;93.20;;;;;;6370066;22;20073;-85
2022/10/22 09:27:00;;;;;;;8.07;5.13;;;21.30;93.20;;;;;;6363946;22;20116;-85
2022/10/22 09:29:32;;;;;;;9.63;6.05;;;21.40;93.50;;;;;;6340304;22;20319;-84
2022/10/22 09:31:57;;;;;;;13.55;6.57;;;21.50;93.60;;;;;;6369693;22;20032;-84
2022/10/22 09:34:23;;;;;;;12.40;5.75;;;21.50;93.50;;;;;;6368713;22;20003;-80
2022/10/22 09:36:59;;;;;;;12.02;5.97;;;21.60;93.40;;;;;;6368889;22;19998;-80
2022/10/22 09:39:28;;;;;;;15.43;6.18;;;21.60;93.50;;;;;;6368683;22;20400;-80
2022/10/22 09:41:53;;;;;;;17.65;8.32;;;21.60;92.90;;;;;;6369474;22;19994;-80
2022/10/22 09:44:19;;;;;;;14.13;7.88;;;21.50;93.20;;;;;;6368924;22;19995;-80
2022/10/22 09:46:45;;;;;;;14.05;7.20;;;21.50;93.50;;;;;;6368483;22;20002;-80
2022/10/22 09:49:20;;;;;;;16.80;9.15;;;21.40;93.60;;;;;;6367519;22;20003;-80
2022/10/22 09:51:56;;;;;;;13.82;9.38;;;21.50;93.40;;;;;;6341404;22;20344;-85
2022/10/22 09:54:35;;;;;;;14.30;8.15;;;21.40;93.70;;;;;;6368994;22;20073;-84
2022/10/22 09:57:09;;;;;;;12.95;7.55;;;21.40;94.00;;;;;;6368984;22;20003;-85
2022/10/22 09:59:40;;;;;;;25.00;8.40;;;21.40;93.90;;;;;;6369016;22;20002;-85
2022/10/22 10:02:08;;;;;;;21.75;9.43;;;21.40;94.00;;;;;;6369008;22;19998;-85
2022/10/22 10:04:56;;;;;;;14.15;8.45;;;21.50;94.00;;;;;;6369565;22;20359;-84
2022/10/22 10:07:24;;;;;;;9.82;7.18;;;21.40;93.80;;;;;;6368043;22;19999;-84
2022/10/22 10:09:52;;;;;;;12.32;6.93;;;21.40;93.90;;;;;;6368625;22;20010;-84
2022/10/22 10:12:30;;;;;;;14.32;8.38;;;21.50;93.80;;;;;;6368757;22;20092;-85
2022/10/22 10:15:17;;;;;;;9.40;6.22;;;21.50;93.60;;;;;;6367986;22;20006;-84
2022/10/22 10:17:48;;;;;;;13.57;8.45;;;21.50;93.60;;;;;;6369050;22;20042;-84
2022/10/22 10:20:22;;;;;;;10.43;6.95;;;21.60;93.50;;;;;;6368361;22;19999;-84
2022/10/22 10:23:26;;;;;;;10.23;6.30;;;21.60;93.50;;;;;;6367758;22;19995;-80
2022/10/22 10:25:59;;;;;;;12.35;7.72;;;21.60;93.60;;;;;;6344687;22;20018;-80
2022/10/22 10:28:46;;;;;;;11.63;6.95;;;21.70;93.40;;;;;;6367649;22;20002;-83
2022/10/22 10:31:39;;;;;;;10.57;6.72;;;21.60;93.20;;;;;;6369014;22;20004;-83
2022/10/22 10:34:17;;;;;;;12.00;5.28;;;21.70;93.40;;;;;;6341955;22;20395;-82
2022/10/22 10:37:01;;;;;;;9.90;6.25;;;21.70;93.60;;;;;;6370456;22;20002;-83
2022/10/22 10:39:52;;;;;;;13.98;7.10;;;21.80;93.40;;;;;;6340747;22;20017;-85
2022/10/22 10:42:29;;;;;;;17.17;9.23;;;21.80;93.40;;;;;;6369303;22;19999;-84
2022/10/22 10:45:07;;;;;;;11.32;7.25;;;21.90;93.50;;;;;;6368555;22;20006;-83
2022/10/22 10:47:39;;;;;;;16.65;9.77;;;21.90;93.20;;;;;;6368021;22;20005;-82
2022/10/22 10:50:42;;;;;;;20.15;10.90;;;21.90;92.90;;;;;;6369843;22;20006;-82
2022/10/22 10:53:40;;;;;;;17.17;9.85;;;21.90;93.40;;;;;;6370243;22;20507;-82
2022/10/22 10:56:22;;;;;;;14.57;8.75;;;21.90;93.40;;;;;;6365317;22;20002;-82
2022/10/22 10:59:02;;;;;;;16.52;8.25;;;21.90;93.50;;;;;;6370534;22;20002;-82
2022/10/22 11:01:41;;;;;;;20.10;8.85;;;22.00;93.30;;;;;;6370035;22;20002;-82
2022/10/22 11:04:40;;;;;;;18.15;9.55;;;21.90;93.20;;;;;;6370088;22;20069;-81
2022/10/22 11:07:12;;;;;;;13.95;8.45;;;21.90;93.20;;;;;;6370661;22;20005;-81
2022/10/22 11:09:54;;;;;;;22.58;9.70;;;21.90;93.40;;;;;;6370636;22;20014;-81
2022/10/22 11:12:29;;;;;;;13.23;8.20;;;22.00;92.80;;;;;;6371139;22;20339;-81
2022/10/22 11:15:13;;;;;;;10.77;8.07;;;21.90;92.90;;;;;;6371346;22;20009;-82
2022/10/22 11:17:43;;;;;;;20.35;8.68;;;22.00;92.70;;;;;;6371103;22;20002;-81
2022/10/22 11:20:18;;;;;;;15.07;7.05;;;22.00;92.30;;;;;;6371145;22;19999;-82
2022/10/22 11:22:54;;;;;;;16.48;8.50;;;22.00;92.50;;;;;;6370498;22;19999;-81
2022/10/22 11:25:37;;;;;;;11.70;6.15;;;22.10;91.90;;;;;;6369392;22;20009;-81
2022/10/22 11:28:13;;;;;;;13.02;8.15;;;22.20;92.10;;;;;;6369251;22;20475;-81
2022/10/22 11:30:42;;;;;;;13.05;6.63;;;22.20;91.60;;;;;;6342841;22;20013;-82
2022/10/22 11:33:22;;;;;;;10.45;6.97;;;22.20;91.60;;;;;;6370087;22;20464;-81
2022/10/22 11:35:49;;;;;;;12.80;7.18;;;22.10;91.30;;;;;;6370458;22;20036;-81
2022/10/22 11:38:19;;;;;;;14.10;6.70;;;22.20;91.40;;;;;;6367859;22;20006;-81
2022/10/22 11:41:20;;;;;;;10.98;8.00;;;22.30;91.30;;;;;;6369743;22;20002;-81
2022/10/22 11:43:58;;;;;;;16.25;7.28;;;22.20;90.90;;;;;;6348805;22;20002;-81
2022/10/22 11:46:41;;;;;;;10.73;7.50;;;22.00;91.10;;;;;;6362457;22;19998;-81
2022/10/22 11:49:13;;;;;;;11.02;7.10;;;22.00;91.30;;;;;;6368403;22;20072;-84
2022/10/22 11:51:41;;;;;;;10.20;5.80;;;22.10;91.00;;;;;;6334982;22;20470;-83
2022/10/22 11:54:32;;;;;;;14.75;8.70;;;22.30;91.10;;;;;;6367995;22;20044;-82
2022/10/22 11:57:25;;;;;;;18.13;7.95;;;22.30;90.40;;;;;;6368216;22;19998;-83
2022/10/22 12:00:00;;;;;;;10.88;7.28;;;22.20;90.50;;;;;;6367084;22;20002;-83
2022/10/22 12:02:41;;;;;;;14.23;8.38;;;22.20;90.70;;;;;;6366542;22;20002;-80
2022/10/22 12:05:22;;;;;;;11.18;7.57;;;22.20;90.70;;;;;;6368092;22;19998;-78
2022/10/22 12:07:51;;;;;;;13.38;7.72;;;22.10;91.00;;;;;;6368088;22;20085;-83
2022/10/22 12:10:21;;;;;;;20.23;7.07;;;22.20;90.70;;;;;;6366672;22;20127;-84
2022/10/22 12:13:11;;;;;;;9.32;5.70;;;22.10;90.40;;;;;;6368627;22;19998;-84
2022/10/22 12:15:47;;;;;;;13.02;5.47;;;22.20;90.40;;;;;;6357087;22;20021;-85
2022/10/22 12:18:13;;;;;;;12.95;7.20;;;22.30;90.80;;;;;;6368424;22;20002;-85
2022/10/22 12:20:39;;;;;;;11.55;6.97;;;22.10;91.70;;;;;;6369130;22;20006;-84
2022/10/22 12:23:11;;;;;;;15.50;7.60;;;22.00;92.30;;;;;;6368533;22;20005;-84
2022/10/22 12:25:37;;;;;;;12.32;7.40;;;21.70;92.70;;;;;;6369241;22;20541;-85
2022/10/22 12:28:03;;;;;;;15.45;8.30;;;21.40;93.40;;;;;;6367385;22;19998;-85
2022/10/22 12:30:34;;;;;;;12.75;7.63;;;21.30;94.00;;;;;;6368895;22;20055;-79
2022/10/22 12:33:03;;;;;;;12.48;7.93;;;21.30;94.00;;;;;;6366762;22;20337;-83
2022/10/22 12:35:31;;;;;;;17.70;8.70;;;21.30;94.00;;;;;;6368732;22;19998;-84
2022/10/22 12:38:00;;;;;;;9.02;6.78;;;21.20;94.00;;;;;;6368376;22;20060;-84
2022/10/22 12:40:32;;;;;;;13.87;7.57;;;21.20;94.20;;;;;;6368608;22;20040;-85
2022/10/22 12:43:01;;;;;;;10.68;7.00;;;21.20;94.10;;;;;;6368096;22;20002;-83
2022/10/22 12:45:33;;;;;;;10.27;7.22;;;21.30;94.00;;;;;;6369269;22;19998;-84
2022/10/22 12:48:05;;;;;;;11.13;7.13;;;21.40;94.20;;;;;;6368134;22;20002;-84
2022/10/22 12:50:38;;;;;;;15.18;7.07;;;21.30;94.00;;;;;;6367929;22;19998;-82
2022/10/22 12:53:27;;;;;;;13.20;7.35;;;21.20;94.00;;;;;;6367505;22;20007;-83